sensor_id;sensor_type;location;lat;lon;timestamp;temperature;humidity
18717;DHT22;9487;50.892;6.906;2023-04-24T00:01:49;13.00;1.00
18717;DHT22;9487;50.892;6.906;2023-04-24T00:04:17;13.00;99.90
18717;DHT22;9487;50.892;6.906;2023-04-24T00:06:45;12.90;1.00
18717;DHT22;9487;50.892;6.906;2023-04-24T00:09:15;12.90;1.00
18717;DHT22;9487;50.892;6.906;2023-04-24T00:11:43;13.00;1.00
18717;DHT22;9487;50.892;6.906;2023-04-24T00:14:11;13.00;1.00
18717;DHT22;9487;50.892;6.906;2023-04-24T00:16:38;13.00;1.00
18717;DHT22;9487;50.892;6.906;2023-04-24T00:19:05;13.00;99.90
18717;DHT22;9487;50.892;6.906;2023-04-24T00:21:32;12.90;1.00
18717;DHT22;9487;50.892;6.906;2023-04-24T00:24:00;12.90;1.00
18717;DHT22;9487;50.892;6.906;2023-04-24T00:26:27;13.00;1.00
18717;DHT22;9487;50.892;6.906;2023-04-24T00:28:54;12.90;1.00
18717;DHT22;9487;50.892;6.906;2023-04-24T00:31:21;12.90;1.00
18717;DHT22;9487;50.892;6.906;2023-04-24T00:33:48;12.90;1.00
18717;DHT22;9487;50.892;6.906;2023-04-24T00:36:15;12.90;99.90
18717;DHT22;9487;50.892;6.906;2023-04-24T00:38:45;12.80;99.90
18717;DHT22;9487;50.892;6.906;2023-04-24T00:41:13;12.80;99.90
18717;DHT22;9487;50.892;6.906;2023-04-24T00:43:40;12.70;1.00
18717;DHT22;9487;50.892;6.906;2023-04-24T00:46:07;12.60;1.00
18717;DHT22;9487;50.892;6.906;2023-04-24T00:48:35;12.60;1.00
18717;DHT22;9487;50.892;6.906;2023-04-24T00:51:02;12.60;99.90
18717;DHT22;9487;50.892;6.906;2023-04-24T00:53:29;12.60;99.90
18717;DHT22;9487;50.892;6.906;2023-04-24T00:55:57;12.60;99.90
18717;DHT22;9487;50.892;6.906;2023-04-24T00:58:26;12.50;1.00
18717;DHT22;9487;50.892;6.906;2023-04-24T01:00:54;12.50;1.00
18717;DHT22;9487;50.892;6.906;2023-04-24T01:03:25;12.40;99.90
18717;DHT22;9487;50.892;6.906;2023-04-24T01:05:54;12.30;1.00
18717;DHT22;9487;50.892;6.906;2023-04-24T01:08:23;12.30;18.30
18717;DHT22;9487;50.892;6.906;2023-04-24T01:10:51;12.20;1.00
18717;DHT22;9487;50.892;6.906;2023-04-24T01:13:18;12.30;1.00
18717;DHT22;9487;50.892;6.906;2023-04-24T01:15:47;12.20;99.90
18717;DHT22;9487;50.892;6.906;2023-04-24T01:18:14;12.20;99.90
18717;DHT22;9487;50.892;6.906;2023-04-24T01:20:42;12.20;1.00
18717;DHT22;9487;50.892;6.906;2023-04-24T01:23:11;12.10;99.90
18717;DHT22;9487;50.892;6.906;2023-04-24T01:25:38;12.10;99.90
18717;DHT22;9487;50.892;6.906;2023-04-24T01:28:05;12.20;1.00
18717;DHT22;9487;50.892;6.906;2023-04-24T01:30:32;12.10;99.90
18717;DHT22;9487;50.892;6.906;2023-04-24T01:32:59;12.00;99.90
18717;DHT22;9487;50.892;6.906;2023-04-24T01:35:26;12.00;1.00
18717;DHT22;9487;50.892;6.906;2023-04-24T01:37:53;11.90;1.00
18717;DHT22;9487;50.892;6.906;2023-04-24T01:40:21;12.00;1.00
18717;DHT22;9487;50.892;6.906;2023-04-24T01:42:48;12.00;1.00
18717;DHT22;9487;50.892;6.906;2023-04-24T01:45:15;11.90;99.90
18717;DHT22;9487;50.892;6.906;2023-04-24T01:47:42;11.90;99.90
18717;DHT22;9487;50.892;6.906;2023-04-24T01:50:09;11.90;1.00
18717;DHT22;9487;50.892;6.906;2023-04-24T01:52:37;12.00;99.90
18717;DHT22;9487;50.892;6.906;2023-04-24T01:55:05;11.90;1.00
18717;DHT22;9487;50.892;6.906;2023-04-24T01:57:34;11.80;1.00
18717;DHT22;9487;50.892;6.906;2023-04-24T02:00:01;11.60;39.90
18717;DHT22;9487;50.892;6.906;2023-04-24T02:02:30;11.50;99.90
18717;DHT22;9487;50.892;6.906;2023-04-24T02:04:57;11.40;1.00
18717;DHT22;9487;50.892;6.906;2023-04-24T02:07:24;11.20;1.00
18717;DHT22;9487;50.892;6.906;2023-04-24T02:09:51;11.20;1.00
18717;DHT22;9487;50.892;6.906;2023-04-24T02:12:17;11.00;99.90
18717;DHT22;9487;50.892;6.906;2023-04-24T02:14:46;11.00;99.90
18717;DHT22;9487;50.892;6.906;2023-04-24T02:17:12;10.90;99.90
18717;DHT22;9487;50.892;6.906;2023-04-24T02:19:41;10.90;1.00
18717;DHT22;9487;50.892;6.906;2023-04-24T02:22:07;10.90;1.00
18717;DHT22;9487;50.892;6.906;2023-04-24T02:24:34;10.80;94.50
18717;DHT22;9487;50.892;6.906;2023-04-24T02:27:01;10.80;99.90
18717;DHT22;9487;50.892;6.906;2023-04-24T02:29:28;10.70;94.20
18717;DHT22;9487;50.892;6.906;2023-04-24T02:31:56;10.70;99.90
18717;DHT22;9487;50.892;6.906;2023-04-24T02:34:24;10.60;1.00
18717;DHT22;9487;50.892;6.906;2023-04-24T02:36:51;10.60;85.20
18717;DHT22;9487;50.892;6.906;2023-04-24T02:39:19;10.60;1.00
18717;DHT22;9487;50.892;6.906;2023-04-24T02:41:46;10.60;99.90
18717;DHT22;9487;50.892;6.906;2023-04-24T02:44:13;10.70;9.20
18717;DHT22;9487;50.892;6.906;2023-04-24T02:46:40;10.70;1.00
18717;DHT22;9487;50.892;6.906;2023-04-24T02:49:08;10.70;1.00
18717;DHT22;9487;50.892;6.906;2023-04-24T02:51:37;10.60;1.00
18717;DHT22;9487;50.892;6.906;2023-04-24T02:54:06;10.60;1.00
18717;DHT22;9487;50.892;6.906;2023-04-24T02:56:33;10.60;1.00
18717;DHT22;9487;50.892;6.906;2023-04-24T02:59:01;10.60;1.00
18717;DHT22;9487;50.892;6.906;2023-04-24T03:01:30;10.60;1.00
18717;DHT22;9487;50.892;6.906;2023-04-24T03:03:57;10.60;99.90
18717;DHT22;9487;50.892;6.906;2023-04-24T03:06:25;10.60;99.90
18717;DHT22;9487;50.892;6.906;2023-04-24T03:08:52;10.60;99.90
18717;DHT22;9487;50.892;6.906;2023-04-24T03:11:19;10.60;1.00
18717;DHT22;9487;50.892;6.906;2023-04-24T03:13:46;10.60;99.70
18717;DHT22;9487;50.892;6.906;2023-04-24T03:16:14;10.70;1.00
18717;DHT22;9487;50.892;6.906;2023-04-24T03:18:40;10.60;1.00
18717;DHT22;9487;50.892;6.906;2023-04-24T03:21:07;10.60;1.00
18717;DHT22;9487;50.892;6.906;2023-04-24T03:23:35;10.70;99.90
18717;DHT22;9487;50.892;6.906;2023-04-24T03:26:02;10.70;67.70
18717;DHT22;9487;50.892;6.906;2023-04-24T03:28:29;10.70;1.00
18717;DHT22;9487;50.892;6.906;2023-04-24T03:30:57;10.70;99.90
18717;DHT22;9487;50.892;6.906;2023-04-24T03:33:24;10.60;1.00
18717;DHT22;9487;50.892;6.906;2023-04-24T03:35:51;10.60;1.00
18717;DHT22;9487;50.892;6.906;2023-04-24T03:38:18;10.50;1.00
18717;DHT22;9487;50.892;6.906;2023-04-24T03:40:46;10.40;1.00
18717;DHT22;9487;50.892;6.906;2023-04-24T03:43:12;10.50;1.00
18717;DHT22;9487;50.892;6.906;2023-04-24T03:45:40;10.50;1.00
18717;DHT22;9487;50.892;6.906;2023-04-24T03:48:06;10.50;99.90
18717;DHT22;9487;50.892;6.906;2023-04-24T03:50:34;10.50;1.00
18717;DHT22;9487;50.892;6.906;2023-04-24T03:53:00;10.40;1.00
18717;DHT22;9487;50.892;6.906;2023-04-24T03:55:27;10.40;1.00
18717;DHT22;9487;50.892;6.906;2023-04-24T03:57:55;10.40;1.00
18717;DHT22;9487;50.892;6.906;2023-04-24T04:00:22;10.40;1.00
18717;DHT22;9487;50.892;6.906;2023-04-24T04:02:49;10.40;1.00
18717;DHT22;9487;50.892;6.906;2023-04-24T04:05:16;10.30;1.00
18717;DHT22;9487;50.892;6.906;2023-04-24T04:07:44;10.30;1.00
18717;DHT22;9487;50.892;6.906;2023-04-24T04:10:10;10.40;1.00
18717;DHT22;9487;50.892;6.906;2023-04-24T04:12:37;10.30;1.00
18717;DHT22;9487;50.892;6.906;2023-04-24T04:15:06;10.40;1.00
18717;DHT22;9487;50.892;6.906;2023-04-24T04:17:33;10.40;1.00
18717;DHT22;9487;50.892;6.906;2023-04-24T04:20:00;10.40;1.00
18717;DHT22;9487;50.892;6.906;2023-04-24T04:22:31;10.40;1.00
18717;DHT22;9487;50.892;6.906;2023-04-24T04:24:57;10.40;1.00
18717;DHT22;9487;50.892;6.906;2023-04-24T04:27:24;10.40;1.00
18717;DHT22;9487;50.892;6.906;2023-04-24T04:29:52;10.40;1.00
18717;DHT22;9487;50.892;6.906;2023-04-24T04:32:20;10.40;99.90
18717;DHT22;9487;50.892;6.906;2023-04-24T04:34:47;10.40;99.90
18717;DHT22;9487;50.892;6.906;2023-04-24T04:37:14;10.40;68.00
18717;DHT22;9487;50.892;6.906;2023-04-24T04:39:41;10.40;1.00
18717;DHT22;9487;50.892;6.906;2023-04-24T04:42:08;10.40;1.00
18717;DHT22;9487;50.892;6.906;2023-04-24T04:44:35;10.50;1.00
18717;DHT22;9487;50.892;6.906;2023-04-24T04:47:04;10.50;1.00
18717;DHT22;9487;50.892;6.906;2023-04-24T04:49:33;10.40;18.50
18717;DHT22;9487;50.892;6.906;2023-04-24T04:52:00;10.40;1.00
18717;DHT22;9487;50.892;6.906;2023-04-24T04:54:26;10.40;1.00
18717;DHT22;9487;50.892;6.906;2023-04-24T04:56:53;10.50;1.00
18717;DHT22;9487;50.892;6.906;2023-04-24T04:59:20;10.60;1.00
18717;DHT22;9487;50.892;6.906;2023-04-24T05:01:47;10.60;1.00
18717;DHT22;9487;50.892;6.906;2023-04-24T05:04:14;10.70;1.00
18717;DHT22;9487;50.892;6.906;2023-04-24T05:06:42;10.60;1.00
18717;DHT22;9487;50.892;6.906;2023-04-24T05:09:09;10.60;1.00
18717;DHT22;9487;50.892;6.906;2023-04-24T05:11:36;10.70;1.00
18717;DHT22;9487;50.892;6.906;2023-04-24T05:14:03;10.60;1.00
18717;DHT22;9487;50.892;6.906;2023-04-24T05:16:29;10.70;1.00
18717;DHT22;9487;50.892;6.906;2023-04-24T05:18:57;10.70;1.00
18717;DHT22;9487;50.892;6.906;2023-04-24T05:21:24;10.80;1.00
18717;DHT22;9487;50.892;6.906;2023-04-24T05:23:52;10.80;1.00
18717;DHT22;9487;50.892;6.906;2023-04-24T05:26:19;10.80;1.00
18717;DHT22;9487;50.892;6.906;2023-04-24T05:28:45;10.90;1.00
18717;DHT22;9487;50.892;6.906;2023-04-24T05:31:12;10.90;41.20
18717;DHT22;9487;50.892;6.906;2023-04-24T05:33:39;10.90;1.00
18717;DHT22;9487;50.892;6.906;2023-04-24T05:36:06;10.70;1.00
18717;DHT22;9487;50.892;6.906;2023-04-24T05:38:33;10.80;24.80
18717;DHT22;9487;50.892;6.906;2023-04-24T05:41:01;10.80;60.30
18717;DHT22;9487;50.892;6.906;2023-04-24T05:43:28;10.80;52.00
18717;DHT22;9487;50.892;6.906;2023-04-24T05:45:55;10.80;58.80
18717;DHT22;9487;50.892;6.906;2023-04-24T05:48:22;10.80;62.70
18717;DHT22;9487;50.892;6.906;2023-04-24T05:50:49;10.80;64.60
18717;DHT22;9487;50.892;6.906;2023-04-24T05:53:16;10.80;52.40
18717;DHT22;9487;50.892;6.906;2023-04-24T05:55:43;10.80;35.80
18717;DHT22;9487;50.892;6.906;2023-04-24T05:58:11;10.70;29.10
18717;DHT22;9487;50.892;6.906;2023-04-24T06:00:38;10.70;1.00
18717;DHT22;9487;50.892;6.906;2023-04-24T06:03:08;10.80;36.40
18717;DHT22;9487;50.892;6.906;2023-04-24T06:05:35;10.80;40.50
18717;DHT22;9487;50.892;6.906;2023-04-24T06:08:02;10.80;68.70
18717;DHT22;9487;50.892;6.906;2023-04-24T06:10:28;10.70;67.20
18717;DHT22;9487;50.892;6.906;2023-04-24T06:12:55;10.70;60.20
18717;DHT22;9487;50.892;6.906;2023-04-24T06:15:28;10.70;57.20
18717;DHT22;9487;50.892;6.906;2023-04-24T06:17:54;10.60;69.80
18717;DHT22;9487;50.892;6.906;2023-04-24T06:20:21;10.50;86.60
18717;DHT22;9487;50.892;6.906;2023-04-24T06:22:48;10.50;70.40
18717;DHT22;9487;50.892;6.906;2023-04-24T06:25:15;10.50;81.30
18717;DHT22;9487;50.892;6.906;2023-04-24T06:27:42;10.40;85.50
18717;DHT22;9487;50.892;6.906;2023-04-24T06:30:09;10.40;78.80
18717;DHT22;9487;50.892;6.906;2023-04-24T06:32:38;10.40;87.30
18717;DHT22;9487;50.892;6.906;2023-04-24T06:35:06;10.40;92.10
18717;DHT22;9487;50.892;6.906;2023-04-24T06:37:35;10.30;98.70
18717;DHT22;9487;50.892;6.906;2023-04-24T06:40:02;10.20;92.80
18717;DHT22;9487;50.892;6.906;2023-04-24T06:42:29;10.10;89.50
18717;DHT22;9487;50.892;6.906;2023-04-24T06:44:56;10.00;99.90
18717;DHT22;9487;50.892;6.906;2023-04-24T06:47:22;9.80;1.00
18717;DHT22;9487;50.892;6.906;2023-04-24T06:49:51;9.80;99.90
18717;DHT22;9487;50.892;6.906;2023-04-24T06:52:18;9.80;1.00
18717;DHT22;9487;50.892;6.906;2023-04-24T06:54:45;9.70;99.90
18717;DHT22;9487;50.892;6.906;2023-04-24T06:57:12;9.80;1.00
18717;DHT22;9487;50.892;6.906;2023-04-24T06:59:39;9.70;1.00
18717;DHT22;9487;50.892;6.906;2023-04-24T07:02:06;9.70;1.00
18717;DHT22;9487;50.892;6.906;2023-04-24T07:04:33;9.70;1.00
18717;DHT22;9487;50.892;6.906;2023-04-24T07:07:02;9.70;99.90
18717;DHT22;9487;50.892;6.906;2023-04-24T07:09:30;9.70;99.90
18717;DHT22;9487;50.892;6.906;2023-04-24T07:11:57;9.70;99.90
18717;DHT22;9487;50.892;6.906;2023-04-24T07:14:24;9.70;1.00
18717;DHT22;9487;50.892;6.906;2023-04-24T07:16:50;9.60;1.00
18717;DHT22;9487;50.892;6.906;2023-04-24T07:19:17;9.60;1.00
18717;DHT22;9487;50.892;6.906;2023-04-24T07:21:44;9.60;1.00
18717;DHT22;9487;50.892;6.906;2023-04-24T07:24:12;9.50;1.00
18717;DHT22;9487;50.892;6.906;2023-04-24T07:26:39;9.40;1.00
18717;DHT22;9487;50.892;6.906;2023-04-24T07:29:06;9.40;1.00
18717;DHT22;9487;50.892;6.906;2023-04-24T07:31:33;9.30;1.00
18717;DHT22;9487;50.892;6.906;2023-04-24T07:34:00;9.30;1.00
18717;DHT22;9487;50.892;6.906;2023-04-24T07:36:27;9.30;1.00
18717;DHT22;9487;50.892;6.906;2023-04-24T07:38:55;9.30;7.40
18717;DHT22;9487;50.892;6.906;2023-04-24T07:41:23;9.40;85.40
18717;DHT22;9487;50.892;6.906;2023-04-24T07:43:50;9.40;99.90
18717;DHT22;9487;50.892;6.906;2023-04-24T07:46:18;9.40;99.90
18717;DHT22;9487;50.892;6.906;2023-04-24T07:48:44;9.20;1.00
18717;DHT22;9487;50.892;6.906;2023-04-24T07:51:13;9.10;1.00
18717;DHT22;9487;50.892;6.906;2023-04-24T07:53:40;9.20;1.00
18717;DHT22;9487;50.892;6.906;2023-04-24T07:56:07;9.20;8.80
18717;DHT22;9487;50.892;6.906;2023-04-24T07:58:36;9.30;1.00
18717;DHT22;9487;50.892;6.906;2023-04-24T08:01:02;9.20;1.00
18717;DHT22;9487;50.892;6.906;2023-04-24T08:03:29;8.90;1.00
18717;DHT22;9487;50.892;6.906;2023-04-24T08:05:56;8.80;1.00
18717;DHT22;9487;50.892;6.906;2023-04-24T08:08:25;8.60;1.00
18717;DHT22;9487;50.892;6.906;2023-04-24T08:10:52;8.50;1.00
18717;DHT22;9487;50.892;6.906;2023-04-24T08:13:19;8.50;5.00
18717;DHT22;9487;50.892;6.906;2023-04-24T08:15:47;8.50;18.80
18717;DHT22;9487;50.892;6.906;2023-04-24T08:18:14;8.50;66.70
18717;DHT22;9487;50.892;6.906;2023-04-24T08:20:41;8.40;81.90
18717;DHT22;9487;50.892;6.906;2023-04-24T08:23:08;8.30;94.90
18717;DHT22;9487;50.892;6.906;2023-04-24T08:25:35;8.30;99.90
18717;DHT22;9487;50.892;6.906;2023-04-24T08:28:02;8.10;1.00
18717;DHT22;9487;50.892;6.906;2023-04-24T08:30:29;8.00;1.00
18717;DHT22;9487;50.892;6.906;2023-04-24T08:32:58;7.90;1.00
18717;DHT22;9487;50.892;6.906;2023-04-24T08:35:25;7.80;1.00
18717;DHT22;9487;50.892;6.906;2023-04-24T08:37:52;7.70;1.00
18717;DHT22;9487;50.892;6.906;2023-04-24T08:40:26;7.70;1.00
18717;DHT22;9487;50.892;6.906;2023-04-24T08:42:54;7.70;1.00
18717;DHT22;9487;50.892;6.906;2023-04-24T08:45:23;7.70;1.00
18717;DHT22;9487;50.892;6.906;2023-04-24T08:47:52;7.80;1.00
18717;DHT22;9487;50.892;6.906;2023-04-24T08:50:21;7.80;1.00
18717;DHT22;9487;50.892;6.906;2023-04-24T08:52:50;7.80;7.30
18717;DHT22;9487;50.892;6.906;2023-04-24T08:55:19;7.70;1.80
18717;DHT22;9487;50.892;6.906;2023-04-24T08:57:50;7.80;22.80
18717;DHT22;9487;50.892;6.906;2023-04-24T09:00:18;7.80;90.20
18717;DHT22;9487;50.892;6.906;2023-04-24T09:02:47;7.80;99.90
18717;DHT22;9487;50.892;6.906;2023-04-24T09:05:16;7.80;93.40
18717;DHT22;9487;50.892;6.906;2023-04-24T09:07:47;7.90;99.90
18717;DHT22;9487;50.892;6.906;2023-04-24T09:10:16;7.80;99.90
18717;DHT22;9487;50.892;6.906;2023-04-24T09:12:44;7.80;99.90
18717;DHT22;9487;50.892;6.906;2023-04-24T09:15:11;7.90;99.90
18717;DHT22;9487;50.892;6.906;2023-04-24T09:17:38;8.00;99.90
18717;DHT22;9487;50.892;6.906;2023-04-24T09:20:06;8.10;99.90
18717;DHT22;9487;50.892;6.906;2023-04-24T09:22:34;8.20;99.90
18717;DHT22;9487;50.892;6.906;2023-04-24T09:25:06;8.30;99.90
18717;DHT22;9487;50.892;6.906;2023-04-24T09:27:34;8.30;99.90
18717;DHT22;9487;50.892;6.906;2023-04-24T09:30:02;8.30;99.90
18717;DHT22;9487;50.892;6.906;2023-04-24T09:32:29;8.30;99.90
18717;DHT22;9487;50.892;6.906;2023-04-24T09:35:11;8.40;99.90
18717;DHT22;9487;50.892;6.906;2023-04-24T09:37:40;8.40;99.90
18717;DHT22;9487;50.892;6.906;2023-04-24T09:40:15;8.40;99.90
18717;DHT22;9487;50.892;6.906;2023-04-24T09:42:52;8.40;99.90
18717;DHT22;9487;50.892;6.906;2023-04-24T09:45:21;8.40;99.90
18717;DHT22;9487;50.892;6.906;2023-04-24T09:47:52;8.40;99.90
18717;DHT22;9487;50.892;6.906;2023-04-24T09:50:19;8.50;99.90
18717;DHT22;9487;50.892;6.906;2023-04-24T09:52:56;8.60;99.90
18717;DHT22;9487;50.892;6.906;2023-04-24T09:55:25;8.70;99.90
18717;DHT22;9487;50.892;6.906;2023-04-24T09:57:54;9.00;99.90
18717;DHT22;9487;50.892;6.906;2023-04-24T10:00:26;9.00;99.90
18717;DHT22;9487;50.892;6.906;2023-04-24T10:02:57;9.00;99.90
18717;DHT22;9487;50.892;6.906;2023-04-24T10:05:26;9.00;99.90
18717;DHT22;9487;50.892;6.906;2023-04-24T10:07:57;9.10;99.90
18717;DHT22;9487;50.892;6.906;2023-04-24T10:10:25;9.10;99.90
18717;DHT22;9487;50.892;6.906;2023-04-24T10:12:52;9.00;99.90
18717;DHT22;9487;50.892;6.906;2023-04-24T10:15:20;9.20;99.90
18717;DHT22;9487;50.892;6.906;2023-04-24T10:17:48;9.20;99.90
18717;DHT22;9487;50.892;6.906;2023-04-24T10:20:22;9.20;99.90
18717;DHT22;9487;50.892;6.906;2023-04-24T10:22:52;9.30;99.90
18717;DHT22;9487;50.892;6.906;2023-04-24T10:25:20;9.50;99.90
18717;DHT22;9487;50.892;6.906;2023-04-24T10:27:50;9.60;99.90
18717;DHT22;9487;50.892;6.906;2023-04-24T10:30:17;9.60;96.30
18717;DHT22;9487;50.892;6.906;2023-04-24T10:32:44;9.60;62.10
18717;DHT22;9487;50.892;6.906;2023-04-24T10:35:12;9.50;29.00
18717;DHT22;9487;50.892;6.906;2023-04-24T10:37:43;9.50;43.50
18717;DHT22;9487;50.892;6.906;2023-04-24T10:40:16;9.60;70.60
18717;DHT22;9487;50.892;6.906;2023-04-24T10:42:48;9.60;17.30
18717;DHT22;9487;50.892;6.906;2023-04-24T10:45:18;9.80;24.60
18717;DHT22;9487;50.892;6.906;2023-04-24T10:48:01;9.90;25.60
18717;DHT22;9487;50.892;6.906;2023-04-24T10:50:29;9.90;1.00
18717;DHT22;9487;50.892;6.906;2023-04-24T10:53:06;9.90;1.00
18717;DHT22;9487;50.892;6.906;2023-04-24T10:55:44;9.90;1.00
18717;DHT22;9487;50.892;6.906;2023-04-24T10:58:13;10.10;1.00
18717;DHT22;9487;50.892;6.906;2023-04-24T11:00:41;10.00;1.00
18717;DHT22;9487;50.892;6.906;2023-04-24T11:03:24;10.20;1.00
18717;DHT22;9487;50.892;6.906;2023-04-24T11:06:00;10.30;1.00
18717;DHT22;9487;50.892;6.906;2023-04-24T11:08:29;10.30;1.00
18717;DHT22;9487;50.892;6.906;2023-04-24T11:11:02;10.30;1.00
18717;DHT22;9487;50.892;6.906;2023-04-24T11:16:32;10.30;1.00
18717;DHT22;9487;50.892;6.906;2023-04-24T11:19:04;10.20;1.00
18717;DHT22;9487;50.892;6.906;2023-04-24T11:21:36;10.10;1.00
18717;DHT22;9487;50.892;6.906;2023-04-24T11:24:23;9.80;1.00
18717;DHT22;9487;50.892;6.906;2023-04-24T11:26:51;10.00;1.00
18717;DHT22;9487;50.892;6.906;2023-04-24T11:29:20;10.00;1.00
18717;DHT22;9487;50.892;6.906;2023-04-24T11:31:48;10.10;1.00
18717;DHT22;9487;50.892;6.906;2023-04-24T11:34:17;10.00;1.00
18717;DHT22;9487;50.892;6.906;2023-04-24T11:36:45;9.90;1.00
18717;DHT22;9487;50.892;6.906;2023-04-24T11:39:12;10.00;1.00
18717;DHT22;9487;50.892;6.906;2023-04-24T11:41:39;9.90;1.00
18717;DHT22;9487;50.892;6.906;2023-04-24T11:44:07;10.00;9.00
18717;DHT22;9487;50.892;6.906;2023-04-24T11:46:34;10.00;8.40
18717;DHT22;9487;50.892;6.906;2023-04-24T11:49:04;10.20;5.70
18717;DHT22;9487;50.892;6.906;2023-04-24T11:51:31;10.10;1.00
18717;DHT22;9487;50.892;6.906;2023-04-24T11:53:59;10.10;1.00
18717;DHT22;9487;50.892;6.906;2023-04-24T11:56:26;10.20;1.00
18717;DHT22;9487;50.892;6.906;2023-04-24T11:58:53;10.30;1.00
18717;DHT22;9487;50.892;6.906;2023-04-24T12:01:20;10.50;1.00
18717;DHT22;9487;50.892;6.906;2023-04-24T12:03:48;10.70;1.00
18717;DHT22;9487;50.892;6.906;2023-04-24T12:06:17;10.90;1.00
18717;DHT22;9487;50.892;6.906;2023-04-24T12:08:48;11.10;99.90
18717;DHT22;9487;50.892;6.906;2023-04-24T12:11:16;11.30;1.00
18717;DHT22;9487;50.892;6.906;2023-04-24T12:13:44;11.40;1.00
18717;DHT22;9487;50.892;6.906;2023-04-24T12:16:12;11.30;99.90
18717;DHT22;9487;50.892;6.906;2023-04-24T12:18:43;11.40;99.90
18717;DHT22;9487;50.892;6.906;2023-04-24T12:21:22;11.40;99.90
18717;DHT22;9487;50.892;6.906;2023-04-24T12:23:54;11.10;99.90
18717;DHT22;9487;50.892;6.906;2023-04-24T12:26:21;11.20;99.90
18717;DHT22;9487;50.892;6.906;2023-04-24T12:28:49;11.30;99.90
18717;DHT22;9487;50.892;6.906;2023-04-24T12:31:17;11.20;1.00
18717;DHT22;9487;50.892;6.906;2023-04-24T12:33:44;11.20;1.00
18717;DHT22;9487;50.892;6.906;2023-04-24T12:36:11;11.20;99.90
18717;DHT22;9487;50.892;6.906;2023-04-24T12:38:43;11.20;1.00
18717;DHT22;9487;50.892;6.906;2023-04-24T12:41:13;11.40;6.80
18717;DHT22;9487;50.892;6.906;2023-04-24T12:43:51;11.60;1.00
18717;DHT22;9487;50.892;6.906;2023-04-24T12:46:18;11.60;1.00
18717;DHT22;9487;50.892;6.906;2023-04-24T12:48:45;11.90;99.90
18717;DHT22;9487;50.892;6.906;2023-04-24T12:51:12;12.10;99.90
18717;DHT22;9487;50.892;6.906;2023-04-24T12:53:40;11.90;99.90
18717;DHT22;9487;50.892;6.906;2023-04-24T12:56:07;12.20;1.00
18717;DHT22;9487;50.892;6.906;2023-04-24T12:58:34;12.40;1.00
18717;DHT22;9487;50.892;6.906;2023-04-24T13:01:00;12.60;1.00
18717;DHT22;9487;50.892;6.906;2023-04-24T13:03:27;12.80;99.90
18717;DHT22;9487;50.892;6.906;2023-04-24T13:05:54;12.80;1.00
18717;DHT22;9487;50.892;6.906;2023-04-24T13:08:21;12.80;99.90
18717;DHT22;9487;50.892;6.906;2023-04-24T13:10:49;12.90;1.00
18717;DHT22;9487;50.892;6.906;2023-04-24T13:13:17;12.90;1.00
18717;DHT22;9487;50.892;6.906;2023-04-24T13:15:44;12.70;1.00
18717;DHT22;9487;50.892;6.906;2023-04-24T13:18:11;12.70;1.00
18717;DHT22;9487;50.892;6.906;2023-04-24T13:20:37;12.80;92.90
18717;DHT22;9487;50.892;6.906;2023-04-24T13:23:06;13.00;1.00
18717;DHT22;9487;50.892;6.906;2023-04-24T13:25:35;12.90;99.90
18717;DHT22;9487;50.892;6.906;2023-04-24T13:28:04;12.80;99.90
18717;DHT22;9487;50.892;6.906;2023-04-24T13:30:31;12.70;1.00
18717;DHT22;9487;50.892;6.906;2023-04-24T13:32:58;12.80;1.00
18717;DHT22;9487;50.892;6.906;2023-04-24T13:35:25;12.80;1.00
18717;DHT22;9487;50.892;6.906;2023-04-24T13:37:52;12.50;1.00
18717;DHT22;9487;50.892;6.906;2023-04-24T13:40:18;12.50;1.00
18717;DHT22;9487;50.892;6.906;2023-04-24T13:42:45;12.30;1.00
18717;DHT22;9487;50.892;6.906;2023-04-24T13:45:14;12.40;99.90
18717;DHT22;9487;50.892;6.906;2023-04-24T13:47:40;12.80;98.70
18717;DHT22;9487;50.892;6.906;2023-04-24T13:50:08;12.60;99.90
18717;DHT22;9487;50.892;6.906;2023-04-24T13:52:35;12.50;1.00
18717;DHT22;9487;50.892;6.906;2023-04-24T13:55:02;12.50;1.00
18717;DHT22;9487;50.892;6.906;2023-04-24T13:57:29;12.40;1.00
18717;DHT22;9487;50.892;6.906;2023-04-24T13:59:57;12.40;1.00
18717;DHT22;9487;50.892;6.906;2023-04-24T14:02:28;12.20;1.00
18717;DHT22;9487;50.892;6.906;2023-04-24T14:04:54;12.30;1.00
18717;DHT22;9487;50.892;6.906;2023-04-24T14:07:21;12.20;30.00
18717;DHT22;9487;50.892;6.906;2023-04-24T14:09:48;12.30;1.00
18717;DHT22;9487;50.892;6.906;2023-04-24T14:12:15;12.30;1.00
18717;DHT22;9487;50.892;6.906;2023-04-24T14:14:45;12.30;99.90
18717;DHT22;9487;50.892;6.906;2023-04-24T14:17:12;12.20;1.00
18717;DHT22;9487;50.892;6.906;2023-04-24T14:19:40;12.30;1.00
18717;DHT22;9487;50.892;6.906;2023-04-24T14:22:07;12.40;1.00
18717;DHT22;9487;50.892;6.906;2023-04-24T14:24:34;12.60;1.00
18717;DHT22;9487;50.892;6.906;2023-04-24T14:27:01;12.70;99.90
18717;DHT22;9487;50.892;6.906;2023-04-24T14:29:28;12.80;99.90
18717;DHT22;9487;50.892;6.906;2023-04-24T14:31:55;12.70;99.90
18717;DHT22;9487;50.892;6.906;2023-04-24T14:34:22;12.40;99.90
18717;DHT22;9487;50.892;6.906;2023-04-24T14:36:50;12.30;99.90
18717;DHT22;9487;50.892;6.906;2023-04-24T14:39:17;12.50;99.90
18717;DHT22;9487;50.892;6.906;2023-04-24T14:41:43;12.90;89.80
18717;DHT22;9487;50.892;6.906;2023-04-24T14:44:10;12.80;1.00
18717;DHT22;9487;50.892;6.906;2023-04-24T14:46:37;12.70;1.00
18717;DHT22;9487;50.892;6.906;2023-04-24T14:49:04;12.50;1.00
18717;DHT22;9487;50.892;6.906;2023-04-24T14:51:35;12.50;1.00
18717;DHT22;9487;50.892;6.906;2023-04-24T14:54:03;12.90;1.00
18717;DHT22;9487;50.892;6.906;2023-04-24T14:56:30;13.00;99.90
18717;DHT22;9487;50.892;6.906;2023-04-24T14:58:57;13.20;99.90
18717;DHT22;9487;50.892;6.906;2023-04-24T15:01:24;13.00;99.90
18717;DHT22;9487;50.892;6.906;2023-04-24T15:03:51;13.20;86.70
18717;DHT22;9487;50.892;6.906;2023-04-24T15:06:17;13.20;99.90
18717;DHT22;9487;50.892;6.906;2023-04-24T15:08:45;12.90;99.90
18717;DHT22;9487;50.892;6.906;2023-04-24T15:11:13;12.60;1.00
18717;DHT22;9487;50.892;6.906;2023-04-24T15:13:40;12.80;1.00
18717;DHT22;9487;50.892;6.906;2023-04-24T15:16:07;12.60;1.00
18717;DHT22;9487;50.892;6.906;2023-04-24T15:18:34;12.60;99.90
18717;DHT22;9487;50.892;6.906;2023-04-24T15:21:01;12.70;99.90
18717;DHT22;9487;50.892;6.906;2023-04-24T15:23:27;12.60;99.90
18717;DHT22;9487;50.892;6.906;2023-04-24T15:25:54;12.80;1.00
18717;DHT22;9487;50.892;6.906;2023-04-24T15:28:23;12.80;99.90
18717;DHT22;9487;50.892;6.906;2023-04-24T15:30:50;12.40;1.00
18717;DHT22;9487;50.892;6.906;2023-04-24T15:33:17;12.40;1.00
18717;DHT22;9487;50.892;6.906;2023-04-24T15:35:44;12.30;1.00
18717;DHT22;9487;50.892;6.906;2023-04-24T15:38:11;12.50;1.00
18717;DHT22;9487;50.892;6.906;2023-04-24T15:40:37;12.90;1.00
18717;DHT22;9487;50.892;6.906;2023-04-24T15:43:04;13.20;99.90
18717;DHT22;9487;50.892;6.906;2023-04-24T15:45:32;13.00;99.90
18717;DHT22;9487;50.892;6.906;2023-04-24T15:48:00;13.20;99.90
18717;DHT22;9487;50.892;6.906;2023-04-24T15:50:27;13.00;99.90
18717;DHT22;9487;50.892;6.906;2023-04-24T15:52:54;12.90;41.70
18717;DHT22;9487;50.892;6.906;2023-04-24T15:55:20;12.90;99.90
18717;DHT22;9487;50.892;6.906;2023-04-24T15:57:47;12.70;1.00
18717;DHT22;9487;50.892;6.906;2023-04-24T16:00:16;12.90;99.90
18717;DHT22;9487;50.892;6.906;2023-04-24T16:02:44;12.70;99.90
18717;DHT22;9487;50.892;6.906;2023-04-24T16:05:11;12.70;99.90
18717;DHT22;9487;50.892;6.906;2023-04-24T16:07:38;12.70;1.00